sensor_id;sensor_type;location;lat;lon;timestamp;P1;durP1;ratioP1;P2;durP2;ratioP2
10491;SDS011;5293;51.464;-2.566;2023-03-15T00:02:01;13.63;;;6.67;;
10491;SDS011;5293;51.464;-2.566;2023-03-15T00:04:28;12.37;;;5.57;;
10491;SDS011;5293;51.464;-2.566;2023-03-15T00:06:56;7.70;;;4.83;;
10491;SDS011;5293;51.464;-2.566;2023-03-15T00:09:23;11.67;;;5.10;;
10491;SDS011;5293;51.464;-2.566;2023-03-15T00:11:49;7.63;;;4.90;;
10491;SDS011;5293;51.464;-2.566;2023-03-15T00:14:16;8.97;;;4.60;;
10491;SDS011;5293;51.464;-2.566;2023-03-15T00:16:42;5.23;;;4.53;;
10491;SDS011;5293;51.464;-2.566;2023-03-15T00:19:08;7.30;;;5.13;;
10491;SDS011;5293;51.464;-2.566;2023-03-15T00:21:34;5.87;;;4.63;;
10491;SDS011;5293;51.464;-2.566;2023-03-15T00:24:00;8.37;;;4.87;;
10491;SDS011;5293;51.464;-2.566;2023-03-15T00:26:26;8.43;;;4.87;;
10491;SDS011;5293;51.464;-2.566;2023-03-15T00:28:52;11.27;;;5.23;;
10491;SDS011;5293;51.464;-2.566;2023-03-15T00:31:18;6.33;;;4.73;;
10491;SDS011;5293;51.464;-2.566;2023-03-15T00:33:46;11.03;;;5.60;;
10491;SDS011;5293;51.464;-2.566;2023-03-15T00:36:13;10.43;;;5.83;;
10491;SDS011;5293;51.464;-2.566;2023-03-15T00:38:39;10.77;;;5.57;;
10491;SDS011;5293;51.464;-2.566;2023-03-15T00:41:11;6.80;;;4.77;;
10491;SDS011;5293;51.464;-2.566;2023-03-15T00:43:38;8.43;;;5.40;;
10491;SDS011;5293;51.464;-2.566;2023-03-15T00:46:04;9.30;;;5.10;;
10491;SDS011;5293;51.464;-2.566;2023-03-15T00:48:31;7.47;;;4.73;;
10491;SDS011;5293;51.464;-2.566;2023-03-15T00:51:01;11.13;;;4.77;;
10491;SDS011;5293;51.464;-2.566;2023-03-15T00:53:31;11.27;;;5.10;;
10491;SDS011;5293;51.464;-2.566;2023-03-15T00:56:07;9.17;;;4.83;;
10491;SDS011;5293;51.464;-2.566;2023-03-15T00:58:34;9.03;;;5.27;;
10491;SDS011;5293;51.464;-2.566;2023-03-15T01:01:04;10.27;;;4.93;;
10491;SDS011;5293;51.464;-2.566;2023-03-15T01:03:37;8.97;;;5.33;;
10491;SDS011;5293;51.464;-2.566;2023-03-15T01:06:07;7.10;;;5.20;;
10491;SDS011;5293;51.464;-2.566;2023-03-15T01:08:34;10.70;;;5.13;;
10491;SDS011;5293;51.464;-2.566;2023-03-15T01:11:01;10.13;;;5.10;;
10491;SDS011;5293;51.464;-2.566;2023-03-15T01:13:31;8.47;;;4.40;;
10491;SDS011;5293;51.464;-2.566;2023-03-15T01:15:57;7.40;;;4.40;;
10491;SDS011;5293;51.464;-2.566;2023-03-15T01:18:23;8.77;;;4.97;;
10491;SDS011;5293;51.464;-2.566;2023-03-15T01:20:49;6.00;;;4.73;;
10491;SDS011;5293;51.464;-2.566;2023-03-15T01:23:14;7.30;;;4.50;;
10491;SDS011;5293;51.464;-2.566;2023-03-15T01:25:40;9.27;;;5.63;;
10491;SDS011;5293;51.464;-2.566;2023-03-15T01:28:06;7.70;;;5.23;;
10491;SDS011;5293;51.464;-2.566;2023-03-15T01:30:31;10.77;;;5.77;;
10491;SDS011;5293;51.464;-2.566;2023-03-15T01:32:57;6.70;;;4.87;;
10491;SDS011;5293;51.464;-2.566;2023-03-15T01:35:23;7.50;;;5.07;;
10491;SDS011;5293;51.464;-2.566;2023-03-15T01:37:49;7.47;;;4.77;;
10491;SDS011;5293;51.464;-2.566;2023-03-15T01:40:16;9.67;;;5.30;;
10491;SDS011;5293;51.464;-2.566;2023-03-15T01:42:49;10.23;;;4.93;;
10491;SDS011;5293;51.464;-2.566;2023-03-15T01:45:56;9.43;;;5.07;;
10491;SDS011;5293;51.464;-2.566;2023-03-15T01:48:26;8.57;;;5.33;;
10491;SDS011;5293;51.464;-2.566;2023-03-15T01:50:55;6.10;;;5.23;;
10491;SDS011;5293;51.464;-2.566;2023-03-15T01:53:22;8.67;;;5.17;;
10491;SDS011;5293;51.464;-2.566;2023-03-15T01:55:49;9.07;;;5.20;;
10491;SDS011;5293;51.464;-2.566;2023-03-15T01:58:17;12.13;;;5.70;;
10491;SDS011;5293;51.464;-2.566;2023-03-15T02:00:45;11.30;;;6.00;;
10491;SDS011;5293;51.464;-2.566;2023-03-15T02:03:12;14.00;;;6.17;;
10491;SDS011;5293;51.464;-2.566;2023-03-15T02:05:50;8.57;;;5.40;;
10491;SDS011;5293;51.464;-2.566;2023-03-15T02:08:19;11.40;;;5.30;;
10491;SDS011;5293;51.464;-2.566;2023-03-15T02:10:48;9.43;;;5.00;;
10491;SDS011;5293;51.464;-2.566;2023-03-15T02:13:18;7.47;;;4.83;;
10491;SDS011;5293;51.464;-2.566;2023-03-15T02:15:46;10.17;;;5.37;;
10491;SDS011;5293;51.464;-2.566;2023-03-15T02:18:13;8.03;;;6.03;;
10491;SDS011;5293;51.464;-2.566;2023-03-15T02:23:16;11.47;;;5.80;;
10491;SDS011;5293;51.464;-2.566;2023-03-15T02:28:36;9.80;;;5.10;;
10491;SDS011;5293;51.464;-2.566;2023-03-15T02:31:04;8.00;;;5.27;;
10491;SDS011;5293;51.464;-2.566;2023-03-15T02:33:38;8.73;;;5.13;;
10491;SDS011;5293;51.464;-2.566;2023-03-15T02:36:14;7.67;;;5.73;;
10491;SDS011;5293;51.464;-2.566;2023-03-15T02:38:44;11.97;;;5.30;;
10491;SDS011;5293;51.464;-2.566;2023-03-15T02:41:11;7.70;;;5.20;;
10491;SDS011;5293;51.464;-2.566;2023-03-15T02:43:39;7.67;;;5.37;;
10491;SDS011;5293;51.464;-2.566;2023-03-15T02:46:05;9.97;;;5.30;;
10491;SDS011;5293;51.464;-2.566;2023-03-15T02:48:32;7.80;;;4.93;;
10491;SDS011;5293;51.464;-2.566;2023-03-15T02:50:59;8.13;;;5.07;;
10491;SDS011;5293;51.464;-2.566;2023-03-15T02:53:30;7.60;;;4.83;;
10491;SDS011;5293;51.464;-2.566;2023-03-15T02:55:56;9.03;;;5.30;;
10491;SDS011;5293;51.464;-2.566;2023-03-15T02:58:22;11.13;;;5.63;;
10491;SDS011;5293;51.464;-2.566;2023-03-15T03:00:48;9.97;;;6.03;;
10491;SDS011;5293;51.464;-2.566;2023-03-15T03:03:16;10.23;;;6.00;;
10491;SDS011;5293;51.464;-2.566;2023-03-15T03:05:42;9.70;;;6.10;;
10491;SDS011;5293;51.464;-2.566;2023-03-15T03:08:07;8.77;;;5.90;;
10491;SDS011;5293;51.464;-2.566;2023-03-15T03:10:33;8.70;;;5.87;;
10491;SDS011;5293;51.464;-2.566;2023-03-15T03:12:58;10.43;;;5.93;;
10491;SDS011;5293;51.464;-2.566;2023-03-15T03:15:24;10.60;;;6.17;;
10491;SDS011;5293;51.464;-2.566;2023-03-15T03:17:50;9.10;;;6.50;;
10491;SDS011;5293;51.464;-2.566;2023-03-15T03:20:15;13.90;;;6.03;;
10491;SDS011;5293;51.464;-2.566;2023-03-15T03:22:41;10.50;;;6.47;;
10491;SDS011;5293;51.464;-2.566;2023-03-15T03:25:09;7.47;;;5.37;;
10491;SDS011;5293;51.464;-2.566;2023-03-15T03:27:36;7.80;;;5.77;;
10491;SDS011;5293;51.464;-2.566;2023-03-15T03:30:05;8.87;;;5.43;;
10491;SDS011;5293;51.464;-2.566;2023-03-15T03:32:33;7.10;;;4.77;;
10491;SDS011;5293;51.464;-2.566;2023-03-15T03:34:59;10.43;;;5.20;;
10491;SDS011;5293;51.464;-2.566;2023-03-15T03:37:25;7.57;;;5.07;;
10491;SDS011;5293;51.464;-2.566;2023-03-15T03:39:51;7.67;;;5.33;;
10491;SDS011;5293;51.464;-2.566;2023-03-15T03:42:17;7.47;;;4.80;;
10491;SDS011;5293;51.464;-2.566;2023-03-15T03:44:42;7.40;;;4.93;;
10491;SDS011;5293;51.464;-2.566;2023-03-15T03:47:08;8.37;;;5.30;;
10491;SDS011;5293;51.464;-2.566;2023-03-15T03:49:34;7.47;;;5.23;;
10491;SDS011;5293;51.464;-2.566;2023-03-15T03:51:59;10.63;;;4.87;;
10491;SDS011;5293;51.464;-2.566;2023-03-15T03:54:25;8.13;;;5.17;;
10491;SDS011;5293;51.464;-2.566;2023-03-15T03:56:52;8.13;;;5.03;;
10491;SDS011;5293;51.464;-2.566;2023-03-15T03:59:17;8.57;;;5.57;;
10491;SDS011;5293;51.464;-2.566;2023-03-15T04:01:43;7.60;;;5.00;;
10491;SDS011;5293;51.464;-2.566;2023-03-15T04:04:09;8.43;;;5.10;;
10491;SDS011;5293;51.464;-2.566;2023-03-15T04:06:38;8.37;;;5.30;;
10491;SDS011;5293;51.464;-2.566;2023-03-15T04:09:09;9.63;;;5.07;;
10491;SDS011;5293;51.464;-2.566;2023-03-15T04:11:36;7.37;;;5.70;;
10491;SDS011;5293;51.464;-2.566;2023-03-15T04:14:03;7.57;;;5.07;;
10491;SDS011;5293;51.464;-2.566;2023-03-15T04:16:29;10.63;;;6.70;;
10491;SDS011;5293;51.464;-2.566;2023-03-15T04:18:55;10.50;;;6.13;;
10491;SDS011;5293;51.464;-2.566;2023-03-15T04:21:20;8.83;;;6.13;;
10491;SDS011;5293;51.464;-2.566;2023-03-15T04:23:47;11.10;;;5.87;;
10491;SDS011;5293;51.464;-2.566;2023-03-15T04:26:13;8.40;;;5.70;;
10491;SDS011;5293;51.464;-2.566;2023-03-15T04:28:39;8.73;;;5.33;;
10491;SDS011;5293;51.464;-2.566;2023-03-15T04:31:06;9.13;;;5.60;;
10491;SDS011;5293;51.464;-2.566;2023-03-15T04:33:34;11.53;;;5.40;;
10491;SDS011;5293;51.464;-2.566;2023-03-15T04:36:00;9.10;;;6.07;;
10491;SDS011;5293;51.464;-2.566;2023-03-15T04:38:26;8.23;;;5.90;;
10491;SDS011;5293;51.464;-2.566;2023-03-15T04:40:53;9.83;;;5.73;;
10491;SDS011;5293;51.464;-2.566;2023-03-15T04:43:19;7.17;;;5.37;;
10491;SDS011;5293;51.464;-2.566;2023-03-15T04:45:45;7.83;;;5.70;;
10491;SDS011;5293;51.464;-2.566;2023-03-15T04:48:11;11.23;;;5.97;;
10491;SDS011;5293;51.464;-2.566;2023-03-15T04:50:37;8.93;;;5.70;;
10491;SDS011;5293;51.464;-2.566;2023-03-15T04:53:02;10.87;;;5.97;;
10491;SDS011;5293;51.464;-2.566;2023-03-15T04:55:28;10.27;;;5.97;;
10491;SDS011;5293;51.464;-2.566;2023-03-15T04:57:54;11.90;;;6.70;;
10491;SDS011;5293;51.464;-2.566;2023-03-15T05:00:20;7.73;;;5.77;;
10491;SDS011;5293;51.464;-2.566;2023-03-15T05:02:46;8.57;;;6.27;;
10491;SDS011;5293;51.464;-2.566;2023-03-15T05:05:18;9.93;;;6.33;;
10491;SDS011;5293;51.464;-2.566;2023-03-15T05:07:46;9.03;;;5.80;;
10491;SDS011;5293;51.464;-2.566;2023-03-15T05:10:11;9.93;;;6.10;;
10491;SDS011;5293;51.464;-2.566;2023-03-15T05:12:37;11.47;;;6.57;;
10491;SDS011;5293;51.464;-2.566;2023-03-15T05:15:03;9.07;;;6.30;;
10491;SDS011;5293;51.464;-2.566;2023-03-15T05:17:29;10.70;;;7.63;;
10491;SDS011;5293;51.464;-2.566;2023-03-15T05:19:55;12.03;;;7.27;;
10491;SDS011;5293;51.464;-2.566;2023-03-15T05:22:20;9.73;;;6.77;;
10491;SDS011;5293;51.464;-2.566;2023-03-15T05:24:49;7.63;;;6.17;;
10491;SDS011;5293;51.464;-2.566;2023-03-15T05:27:16;8.77;;;6.37;;
10491;SDS011;5293;51.464;-2.566;2023-03-15T05:29:41;10.10;;;6.97;;
10491;SDS011;5293;51.464;-2.566;2023-03-15T05:32:07;12.80;;;7.43;;
10491;SDS011;5293;51.464;-2.566;2023-03-15T05:34:33;9.37;;;6.63;;
10491;SDS011;5293;51.464;-2.566;2023-03-15T05:36:58;9.33;;;6.13;;
10491;SDS011;5293;51.464;-2.566;2023-03-15T05:39:24;10.87;;;6.37;;
10491;SDS011;5293;51.464;-2.566;2023-03-15T05:41:50;9.70;;;6.33;;
10491;SDS011;5293;51.464;-2.566;2023-03-15T05:44:16;10.77;;;6.90;;
10491;SDS011;5293;51.464;-2.566;2023-03-15T05:46:42;11.37;;;6.10;;
10491;SDS011;5293;51.464;-2.566;2023-03-15T05:49:08;12.63;;;7.00;;
10491;SDS011;5293;51.464;-2.566;2023-03-15T05:51:33;11.33;;;6.73;;
10491;SDS011;5293;51.464;-2.566;2023-03-15T05:53:59;9.77;;;6.13;;
10491;SDS011;5293;51.464;-2.566;2023-03-15T05:56:25;9.73;;;6.77;;
10491;SDS011;5293;51.464;-2.566;2023-03-15T05:58:51;10.67;;;5.83;;
10491;SDS011;5293;51.464;-2.566;2023-03-15T06:01:16;12.03;;;7.03;;
10491;SDS011;5293;51.464;-2.566;2023-03-15T06:03:42;10.50;;;6.57;;
10491;SDS011;5293;51.464;-2.566;2023-03-15T06:06:08;10.80;;;7.00;;
10491;SDS011;5293;51.464;-2.566;2023-03-15T06:08:34;12.17;;;7.33;;
10491;SDS011;5293;51.464;-2.566;2023-03-15T06:10:59;10.17;;;7.17;;
10491;SDS011;5293;51.464;-2.566;2023-03-15T06:13:25;9.97;;;6.90;;
10491;SDS011;5293;51.464;-2.566;2023-03-15T06:15:51;11.47;;;6.47;;
10491;SDS011;5293;51.464;-2.566;2023-03-15T06:18:16;10.70;;;7.40;;
10491;SDS011;5293;51.464;-2.566;2023-03-15T06:20:42;11.07;;;6.83;;
10491;SDS011;5293;51.464;-2.566;2023-03-15T06:23:08;10.80;;;7.47;;
10491;SDS011;5293;51.464;-2.566;2023-03-15T06:25:34;10.30;;;6.80;;
10491;SDS011;5293;51.464;-2.566;2023-03-15T06:28:00;10.57;;;7.83;;
10491;SDS011;5293;51.464;-2.566;2023-03-15T06:30:26;11.07;;;6.97;;
10491;SDS011;5293;51.464;-2.566;2023-03-15T06:32:52;10.47;;;7.10;;
10491;SDS011;5293;51.464;-2.566;2023-03-15T06:35:18;11.27;;;6.97;;
10491;SDS011;5293;51.464;-2.566;2023-03-15T06:37:44;13.07;;;7.53;;
10491;SDS011;5293;51.464;-2.566;2023-03-15T06:40:10;12.83;;;7.70;;
10491;SDS011;5293;51.464;-2.566;2023-03-15T06:42:36;11.57;;;6.80;;
10491;SDS011;5293;51.464;-2.566;2023-03-15T06:45:03;10.50;;;7.17;;
10491;SDS011;5293;51.464;-2.566;2023-03-15T06:47:30;9.57;;;6.83;;
10491;SDS011;5293;51.464;-2.566;2023-03-15T06:49:56;11.37;;;6.87;;
10491;SDS011;5293;51.464;-2.566;2023-03-15T06:52:21;11.63;;;6.87;;
10491;SDS011;5293;51.464;-2.566;2023-03-15T06:54:47;9.10;;;7.17;;
10491;SDS011;5293;51.464;-2.566;2023-03-15T06:57:13;11.00;;;7.07;;
10491;SDS011;5293;51.464;-2.566;2023-03-15T06:59:38;13.80;;;7.57;;
10491;SDS011;5293;51.464;-2.566;2023-03-15T07:02:05;11.43;;;6.90;;
10491;SDS011;5293;51.464;-2.566;2023-03-15T07:04:32;9.93;;;6.77;;
10491;SDS011;5293;51.464;-2.566;2023-03-15T07:06:57;10.03;;;6.90;;
10491;SDS011;5293;51.464;-2.566;2023-03-15T07:09:23;11.33;;;6.73;;
10491;SDS011;5293;51.464;-2.566;2023-03-15T07:11:48;9.97;;;6.20;;
10491;SDS011;5293;51.464;-2.566;2023-03-15T07:14:14;9.47;;;6.43;;
10491;SDS011;5293;51.464;-2.566;2023-03-15T07:16:40;9.77;;;6.83;;
10491;SDS011;5293;51.464;-2.566;2023-03-15T07:19:05;12.23;;;7.17;;
10491;SDS011;5293;51.464;-2.566;2023-03-15T07:21:31;9.53;;;6.77;;
10491;SDS011;5293;51.464;-2.566;2023-03-15T07:23:57;12.57;;;6.43;;
10491;SDS011;5293;51.464;-2.566;2023-03-15T07:26:22;8.53;;;6.20;;
10491;SDS011;5293;51.464;-2.566;2023-03-15T07:28:48;11.90;;;6.93;;
10491;SDS011;5293;51.464;-2.566;2023-03-15T07:31:14;10.37;;;6.53;;
10491;SDS011;5293;51.464;-2.566;2023-03-15T07:33:40;14.00;;;8.17;;
10491;SDS011;5293;51.464;-2.566;2023-03-15T07:36:06;10.97;;;7.80;;
10491;SDS011;5293;51.464;-2.566;2023-03-15T07:38:32;12.40;;;7.67;;
10491;SDS011;5293;51.464;-2.566;2023-03-15T07:41:08;10.37;;;6.67;;
10491;SDS011;5293;51.464;-2.566;2023-03-15T07:43:33;11.50;;;6.43;;
10491;SDS011;5293;51.464;-2.566;2023-03-15T07:45:59;7.73;;;5.87;;
10491;SDS011;5293;51.464;-2.566;2023-03-15T07:48:26;8.63;;;6.83;;
10491;SDS011;5293;51.464;-2.566;2023-03-15T07:50:53;10.17;;;6.47;;
10491;SDS011;5293;51.464;-2.566;2023-03-15T07:53:19;8.20;;;6.07;;
10491;SDS011;5293;51.464;-2.566;2023-03-15T07:55:46;8.20;;;6.47;;
10491;SDS011;5293;51.464;-2.566;2023-03-15T07:58:12;9.27;;;6.10;;
10491;SDS011;5293;51.464;-2.566;2023-03-15T08:00:38;6.97;;;6.10;;
10491;SDS011;5293;51.464;-2.566;2023-03-15T08:03:03;11.43;;;5.90;;
10491;SDS011;5293;51.464;-2.566;2023-03-15T08:05:31;9.03;;;5.73;;
10491;SDS011;5293;51.464;-2.566;2023-03-15T08:07:58;7.27;;;5.60;;
10491;SDS011;5293;51.464;-2.566;2023-03-15T08:10:24;8.53;;;5.33;;
10491;SDS011;5293;51.464;-2.566;2023-03-15T08:12:50;9.63;;;5.83;;
10491;SDS011;5293;51.464;-2.566;2023-03-15T08:15:15;8.30;;;5.40;;
10491;SDS011;5293;51.464;-2.566;2023-03-15T08:17:42;10.03;;;5.27;;
10491;SDS011;5293;51.464;-2.566;2023-03-15T08:20:09;8.50;;;5.47;;
10491;SDS011;5293;51.464;-2.566;2023-03-15T08:22:45;10.43;;;5.70;;
10491;SDS011;5293;51.464;-2.566;2023-03-15T08:25:12;8.07;;;5.47;;
10491;SDS011;5293;51.464;-2.566;2023-03-15T08:27:39;6.93;;;5.43;;
10491;SDS011;5293;51.464;-2.566;2023-03-15T08:30:06;7.87;;;5.67;;
10491;SDS011;5293;51.464;-2.566;2023-03-15T08:32:33;10.53;;;6.10;;
10491;SDS011;5293;51.464;-2.566;2023-03-15T08:34:59;8.37;;;5.90;;
10491;SDS011;5293;51.464;-2.566;2023-03-15T08:37:24;9.97;;;5.10;;
10491;SDS011;5293;51.464;-2.566;2023-03-15T08:39:50;9.00;;;5.27;;
10491;SDS011;5293;51.464;-2.566;2023-03-15T08:42:25;9.70;;;6.00;;
10491;SDS011;5293;51.464;-2.566;2023-03-15T08:44:51;13.13;;;5.33;;
10491;SDS011;5293;51.464;-2.566;2023-03-15T08:47:16;9.87;;;5.30;;
10491;SDS011;5293;51.464;-2.566;2023-03-15T08:49:42;8.13;;;4.97;;
10491;SDS011;5293;51.464;-2.566;2023-03-15T08:52:08;6.60;;;5.07;;
10491;SDS011;5293;51.464;-2.566;2023-03-15T08:54:34;6.83;;;5.23;;
10491;SDS011;5293;51.464;-2.566;2023-03-15T08:56:59;7.10;;;4.97;;
10491;SDS011;5293;51.464;-2.566;2023-03-15T08:59:25;7.13;;;5.20;;
10491;SDS011;5293;51.464;-2.566;2023-03-15T09:01:51;7.17;;;5.47;;
10491;SDS011;5293;51.464;-2.566;2023-03-15T09:04:17;10.70;;;5.27;;
10491;SDS011;5293;51.464;-2.566;2023-03-15T09:06:43;8.83;;;5.13;;
10491;SDS011;5293;51.464;-2.566;2023-03-15T09:09:08;7.90;;;4.90;;
10491;SDS011;5293;51.464;-2.566;2023-03-15T09:11:34;6.33;;;4.73;;
10491;SDS011;5293;51.464;-2.566;2023-03-15T09:14:00;8.50;;;5.13;;
10491;SDS011;5293;51.464;-2.566;2023-03-15T09:16:25;7.80;;;4.93;;
10491;SDS011;5293;51.464;-2.566;2023-03-15T09:18:51;9.67;;;4.80;;
10491;SDS011;5293;51.464;-2.566;2023-03-15T09:21:17;7.03;;;5.10;;
10491;SDS011;5293;51.464;-2.566;2023-03-15T09:23:42;5.60;;;4.13;;
10491;SDS011;5293;51.464;-2.566;2023-03-15T09:26:08;11.40;;;4.80;;
10491;SDS011;5293;51.464;-2.566;2023-03-15T09:28:34;7.17;;;4.70;;
10491;SDS011;5293;51.464;-2.566;2023-03-15T09:31:02;8.20;;;4.70;;
10491;SDS011;5293;51.464;-2.566;2023-03-15T09:33:28;9.10;;;4.50;;
10491;SDS011;5293;51.464;-2.566;2023-03-15T09:35:57;7.60;;;4.83;;
10491;SDS011;5293;51.464;-2.566;2023-03-15T09:38:23;9.03;;;5.20;;
10491;SDS011;5293;51.464;-2.566;2023-03-15T09:40:49;10.67;;;5.07;;
10491;SDS011;5293;51.464;-2.566;2023-03-15T09:43:30;9.87;;;5.10;;
10491;SDS011;5293;51.464;-2.566;2023-03-15T09:55:09;8.40;;;5.60;;
10491;SDS011;5293;51.464;-2.566;2023-03-15T10:00:05;8.43;;;4.60;;
10491;SDS011;5293;51.464;-2.566;2023-03-15T10:02:36;7.83;;;4.77;;
10491;SDS011;5293;51.464;-2.566;2023-03-15T10:05:13;7.33;;;5.10;;
10491;SDS011;5293;51.464;-2.566;2023-03-15T10:07:44;8.87;;;5.30;;
10491;SDS011;5293;51.464;-2.566;2023-03-15T10:10:53;6.47;;;4.70;;
10491;SDS011;5293;51.464;-2.566;2023-03-15T10:13:07;8.70;;;4.80;;
10491;SDS011;5293;51.464;-2.566;2023-03-15T10:15:47;5.50;;;4.53;;
10491;SDS011;5293;51.464;-2.566;2023-03-15T10:18:27;11.67;;;5.30;;
10491;SDS011;5293;51.464;-2.566;2023-03-15T10:21:11;7.23;;;4.70;;
10491;SDS011;5293;51.464;-2.566;2023-03-15T10:23:45;7.30;;;4.13;;
10491;SDS011;5293;51.464;-2.566;2023-03-15T10:26:17;5.73;;;4.37;;
10491;SDS011;5293;51.464;-2.566;2023-03-15T10:28:48;6.80;;;4.70;;
10491;SDS011;5293;51.464;-2.566;2023-03-15T10:31:16;9.60;;;5.67;;
10491;SDS011;5293;51.464;-2.566;2023-03-15T10:33:46;15.00;;;5.07;;
10491;SDS011;5293;51.464;-2.566;2023-03-15T10:36:18;10.60;;;4.17;;
10491;SDS011;5293;51.464;-2.566;2023-03-15T10:38:48;9.50;;;4.50;;
10491;SDS011;5293;51.464;-2.566;2023-03-15T10:44:04;7.37;;;3.90;;
10491;SDS011;5293;51.464;-2.566;2023-03-15T10:46:36;8.13;;;3.77;;
10491;SDS011;5293;51.464;-2.566;2023-03-15T10:51:31;6.50;;;3.80;;
10491;SDS011;5293;51.464;-2.566;2023-03-15T10:54:18;5.70;;;3.63;;
10491;SDS011;5293;51.464;-2.566;2023-03-15T10:59:18;5.67;;;4.07;;
10491;SDS011;5293;51.464;-2.566;2023-03-15T11:01:45;3.87;;;3.17;;
10491;SDS011;5293;51.464;-2.566;2023-03-15T11:04:14;5.90;;;2.80;;
10491;SDS011;5293;51.464;-2.566;2023-03-15T11:09:23;6.40;;;2.33;;
10491;SDS011;5293;51.464;-2.566;2023-03-15T11:11:51;5.97;;;1.83;;
10491;SDS011;5293;51.464;-2.566;2023-03-15T11:14:33;6.63;;;2.20;;
10491;SDS011;5293;51.464;-2.566;2023-03-15T11:17:07;3.00;;;1.67;;
10491;SDS011;5293;51.464;-2.566;2023-03-15T11:19:50;9.17;;;2.23;;
10491;SDS011;5293;51.464;-2.566;2023-03-15T11:22:20;5.53;;;1.80;;
10491;SDS011;5293;51.464;-2.566;2023-03-15T11:24:46;3.43;;;1.40;;
10491;SDS011;5293;51.464;-2.566;2023-03-15T11:27:14;5.97;;;1.40;;
10491;SDS011;5293;51.464;-2.566;2023-03-15T11:30:15;11.53;;;1.83;;
10491;SDS011;5293;51.464;-2.566;2023-03-15T11:32:37;2.87;;;1.43;;
10491;SDS011;5293;51.464;-2.566;2023-03-15T11:37:56;9.07;;;1.43;;
10491;SDS011;5293;51.464;-2.566;2023-03-15T11:40:29;2.87;;;1.33;;
10491;SDS011;5293;51.464;-2.566;2023-03-15T11:43:05;3.23;;;1.57;;
10491;SDS011;5293;51.464;-2.566;2023-03-15T11:48:28;2.97;;;1.13;;
10491;SDS011;5293;51.464;-2.566;2023-03-15T11:51:00;3.40;;;1.30;;
10491;SDS011;5293;51.464;-2.566;2023-03-15T11:53:32;1.47;;;1.20;;
10491;SDS011;5293;51.464;-2.566;2023-03-15T11:56:18;4.57;;;1.47;;
10491;SDS011;5293;51.464;-2.566;2023-03-15T11:59:27;6.70;;;1.40;;
10491;SDS011;5293;51.464;-2.566;2023-03-15T12:01:49;6.10;;;1.50;;
10491;SDS011;5293;51.464;-2.566;2023-03-15T12:06:52;4.37;;;1.60;;
10491;SDS011;5293;51.464;-2.566;2023-03-15T12:11:57;5.23;;;1.43;;
10491;SDS011;5293;51.464;-2.566;2023-03-15T12:14:26;8.87;;;2.20;;
10491;SDS011;5293;51.464;-2.566;2023-03-15T12:20:36;4.17;;;1.57;;
10491;SDS011;5293;51.464;-2.566;2023-03-15T12:22:50;6.27;;;2.10;;
10491;SDS011;5293;51.464;-2.566;2023-03-15T12:25:31;3.50;;;1.70;;
10491;SDS011;5293;51.464;-2.566;2023-03-15T12:28:03;3.17;;;1.50;;
10491;SDS011;5293;51.464;-2.566;2023-03-15T12:30:42;5.07;;;1.60;;
10491;SDS011;5293;51.464;-2.566;2023-03-15T12:33:19;2.07;;;1.80;;
10491;SDS011;5293;51.464;-2.566;2023-03-15T12:35:45;5.00;;;2.10;;
10491;SDS011;5293;51.464;-2.566;2023-03-15T12:38:16;3.60;;;2.10;;
10491;SDS011;5293;51.464;-2.566;2023-03-15T12:46:02;5.27;;;2.50;;
10491;SDS011;5293;51.464;-2.566;2023-03-15T12:48:29;8.63;;;2.60;;
10491;SDS011;5293;51.464;-2.566;2023-03-15T12:50:56;8.03;;;2.30;;
10491;SDS011;5293;51.464;-2.566;2023-03-15T12:58:52;3.93;;;2.30;;
10491;SDS011;5293;51.464;-2.566;2023-03-15T13:01:22;13.30;;;6.83;;
10491;SDS011;5293;51.464;-2.566;2023-03-15T13:03:51;5.30;;;2.20;;
10491;SDS011;5293;51.464;-2.566;2023-03-15T13:12:06;3.70;;;1.90;;
10491;SDS011;5293;51.464;-2.566;2023-03-15T13:25:51;9.43;;;2.20;;
10491;SDS011;5293;51.464;-2.566;2023-03-15T13:28:22;5.17;;;2.03;;
10491;SDS011;5293;51.464;-2.566;2023-03-15T13:30:51;4.47;;;2.03;;
10491;SDS011;5293;51.464;-2.566;2023-03-15T13:36:38;3.03;;;1.60;;
10491;SDS011;5293;51.464;-2.566;2023-03-15T13:41:16;4.50;;;2.20;;
10491;SDS011;5293;51.464;-2.566;2023-03-15T13:43:47;5.67;;;1.30;;
10491;SDS011;5293;51.464;-2.566;2023-03-15T13:46:18;4.47;;;1.53;;
10491;SDS011;5293;51.464;-2.566;2023-03-15T13:48:48;3.47;;;1.60;;
10491;SDS011;5293;51.464;-2.566;2023-03-15T13:51:17;7.00;;;1.47;;
10491;SDS011;5293;51.464;-2.566;2023-03-15T13:53:50;5.20;;;1.57;;
10491;SDS011;5293;51.464;-2.566;2023-03-15T13:56:34;5.83;;;1.43;;
10491;SDS011;5293;51.464;-2.566;2023-03-15T13:59:02;3.00;;;1.50;;
10491;SDS011;5293;51.464;-2.566;2023-03-15T14:01:35;3.40;;;1.23;;
10491;SDS011;5293;51.464;-2.566;2023-03-15T14:04:24;1.73;;;1.17;;
10491;SDS011;5293;51.464;-2.566;2023-03-15T14:07:25;2.40;;;1.10;;
10491;SDS011;5293;51.464;-2.566;2023-03-15T14:09:42;1.97;;;1.23;;
10491;SDS011;5293;51.464;-2.566;2023-03-15T14:12:18;2.23;;;1.90;;
10491;SDS011;5293;51.464;-2.566;2023-03-15T14:14:53;3.13;;;1.10;;
10491;SDS011;5293;51.464;-2.566;2023-03-15T14:17:26;0.83;;;0.80;;
10491;SDS011;5293;51.464;-2.566;2023-03-15T14:19:55;5.03;;;0.93;;
10491;SDS011;5293;51.464;-2.566;2023-03-15T14:22:32;4.67;;;1.10;;
10491;SDS011;5293;51.464;-2.566;2023-03-15T14:25:16;3.70;;;0.80;;
10491;SDS011;5293;51.464;-2.566;2023-03-15T14:27:45;3.13;;;1.40;;
10491;SDS011;5293;51.464;-2.566;2023-03-15T14:30:21;2.17;;;1.20;;
10491;SDS011;5293;51.464;-2.566;2023-03-15T14:32:52;3.83;;;1.30;;
10491;SDS011;5293;51.464;-2.566;2023-03-15T14:37:47;2.40;;;1.10;;
10491;SDS011;5293;51.464;-2.566;2023-03-15T14:40:28;1.97;;;0.90;;
10491;SDS011;5293;51.464;-2.566;2023-03-15T14:42:59;4.53;;;1.13;;
10491;SDS011;5293;51.464;-2.566;2023-03-15T14:45:26;4.10;;;1.30;;
10491;SDS011;5293;51.464;-2.566;2023-03-15T14:47:55;2.93;;;1.20;;
10491;SDS011;5293;51.464;-2.566;2023-03-15T14:50:25;3.30;;;1.17;;
10491;SDS011;5293;51.464;-2.566;2023-03-15T14:52:53;4.83;;;0.83;;
10491;SDS011;5293;51.464;-2.566;2023-03-15T14:55:22;5.07;;;1.47;;
10491;SDS011;5293;51.464;-2.566;2023-03-15T14:57:49;5.10;;;1.07;;
10491;SDS011;5293;51.464;-2.566;2023-03-15T15:00:16;3.47;;;0.90;;
10491;SDS011;5293;51.464;-2.566;2023-03-15T15:02:47;3.53;;;1.20;;
10491;SDS011;5293;51.464;-2.566;2023-03-15T15:05:17;3.00;;;1.00;;
10491;SDS011;5293;51.464;-2.566;2023-03-15T15:07:44;3.10;;;1.20;;
10491;SDS011;5293;51.464;-2.566;2023-03-15T15:10:10;7.00;;;1.30;;
10491;SDS011;5293;51.464;-2.566;2023-03-15T15:12:36;3.53;;;0.97;;
10491;SDS011;5293;51.464;-2.566;2023-03-15T15:15:08;9.23;;;1.13;;
10491;SDS011;5293;51.464;-2.566;2023-03-15T15:17:55;5.73;;;1.10;;
10491;SDS011;5293;51.464;-2.566;2023-03-15T15:20:21;4.33;;;1.10;;
10491;SDS011;5293;51.464;-2.566;2023-03-15T15:22:47;2.53;;;1.30;;
10491;SDS011;5293;51.464;-2.566;2023-03-15T15:27:43;4.37;;;1.27;;
10491;SDS011;5293;51.464;-2.566;2023-03-15T15:30:11;4.03;;;1.07;;
10491;SDS011;5293;51.464;-2.566;2023-03-15T15:32:39;3.10;;;1.10;;
10491;SDS011;5293;51.464;-2.566;2023-03-15T15:35:06;4.90;;;1.00;;
10491;SDS011;5293;51.464;-2.566;2023-03-15T15:37:33;1.13;;;0.93;;
10491;SDS011;5293;51.464;-2.566;2023-03-15T15:39:59;3.73;;;1.13;;
10491;SDS011;5293;51.464;-2.566;2023-03-15T15:42:25;5.20;;;1.27;;
10491;SDS011;5293;51.464;-2.566;2023-03-15T15:44:50;2.53;;;1.20;;
10491;SDS011;5293;51.464;-2.566;2023-03-15T15:47:16;4.40;;;1.27;;
10491;SDS011;5293;51.464;-2.566;2023-03-15T15:49:42;4.73;;;1.20;;
10491;SDS011;5293;51.464;-2.566;2023-03-15T15:52:10;4.87;;;1.57;;
10491;SDS011;5293;51.464;-2.566;2023-03-15T15:54:37;6.17;;;1.83;;
10491;SDS011;5293;51.464;-2.566;2023-03-15T15:57:03;6.00;;;1.30;;
10491;SDS011;5293;51.464;-2.566;2023-03-15T15:59:29;4.43;;;1.40;;
10491;SDS011;5293;51.464;-2.566;2023-03-15T16:01:55;2.40;;;1.20;;
10491;SDS011;5293;51.464;-2.566;2023-03-15T16:04:21;4.63;;;1.03;;
10491;SDS011;5293;51.464;-2.566;2023-03-15T16:06:51;6.03;;;1.40;;
10491;SDS011;5293;51.464;-2.566;2023-03-15T16:09:19;4.37;;;1.30;;
10491;SDS011;5293;51.464;-2.566;2023-03-15T16:11:46;2.33;;;0.90;;